McConnell Air Force Base, KS (67221)

6:51 PM CDT on July 28, 2016 (GMT -0500)
Towne Parc | | Change Station
Active Advisory: Severe Thunderstorm Watch

Elev 1411 ft 37.64 °N, 97.23 °W | Updated 18 seconds ago

Clear
Clear
86.9 °F
Feels Like 83 °F
N
3.4
Wind Variable Wind from East
Gusts 4.9 mph

Today
High -- | Low -- °F
--% Chance of Precip.
Yesterday
High -- | Low -- °F
Precip. -- in
Pressure 29.90 in
Visibility 10.0 miles
Clouds Clear
Heat Index 83 °F
Dew Point 24 °F
Humidity 10%
Rainfall 0.00 in
Snow Depth Not available.
6:29 AM 8:40 PM
Waning Crescent, 27% visible
METAR KAAO 282254Z AUTO 13011KT 10SM CLR 31/22 A2994 RMK AO2 SLP123 T03110222
Pressure 29.90 in
Visibility 10.0 miles
Clouds Clear
Heat Index 83 °F
Dew Point 24 °F
Humidity 10%
Rainfall 0.00 in
Snow Depth Not available.
6:29 AM 8:40 PM
Waning Crescent, 27% visible
METAR KAAO 282254Z AUTO 13011KT 10SM CLR 31/22 A2994 RMK AO2 SLP123 T03110222

10-Day Weather Forecast

Almanac

Astronomy

Jul. 28, 2016 Rise Set
Actual Time
Civil Twilight
Nautical Twilight
Astronomical Twilight
Moon
Length of Visible Light
Length of Day
Tomorrow will be .
, % of the Moon is Illuminated

Today's Extremes

State Highs State Lows

Community

WunderPhotos

Upload Photos

1,928,236 photos uploaded!

WunderBlog® & News

Nearby

Air Quality

  Air Quality AQ Index Pollutant
Not available.

Snow Depth

Station Depth Elevation

Earthquake Activity

City Distance Mag. Time & Date
Minimum magnitude displayed is 2.5.

Coastal Water Temperatures

Place Temperature

Stations

Nearby Weather Stations

Station Location Temp. Windchill Dew Point Humidity Wind Precip. Elev Updated Type
                   

Watches & Warnings

Severe Thunderstorm Watch
Issued: 6:43 PM CDT Jul. 28, 2016 – National Weather Service

Severe Thunderstorm Watch 420 remains in effect until 1100 PM CDT
for the following locations


KS
. Kansas counties included are

Barton Butler Chase
Clay cloud Decatur
Dickinson Edwards Ellis
Ellsworth Geary Gove
Graham Greenwood Harvey
Jewell Kingman Lincoln
Lyon McPherson Marion
Mitchell Morris Ness
Norton Osborne Ottawa
Pawnee Phillips Pottawatomie
Pratt Reno Republic
Rice Riley Rooks
rush Russell Saline
Sedgwick Sheridan Smith
Stafford Trego Wabaunsee
Washington